Orbital elements of COSMOS 1275 DEB
| Launched | 3 June 1981 |
| Flight ended | – |
| Launch site | Plesetsk Missile and Space Complex, Russia |
| Owner | Commonwealth of Independent States (former USSR) |
| NORAD ID | 13811 |
| Date fetched |
Epoch osculation |
Inc. [°] |
Ecc. | RA asc node [hr] |
Arg Peri. [°] |
Mean anom [°] |
Mean motion [rev/day] |
Abs. mag |
| Date fetched |
Epoch osculation |
Inc. [°] |
Ecc. | RA asc node [hr] |
Arg Peri. [°] |
Mean anom [°] |
Mean motion [rev/day] |
Abs. mag |
| 2026 May 05 17:57 | 2026 May 04 19:29:19 | 82.9331 | 0.00112 | 17.4679 | 234.9493 | 279.1042 | 14.16030 | – |
| 2026 May 04 17:57 | 2026 Apr 30 09:54:03 | 82.9324 | 0.00108 | 17.7009 | 249.5878 | 279.1042 | 14.16030 | – |
| 2026 May 03 17:57 | 2026 Apr 30 09:54:03 | 82.9324 | 0.00108 | 17.7009 | 249.5878 | 279.1042 | 14.16030 | – |
| 2026 May 02 17:57 | 2026 Apr 30 09:54:03 | 82.9324 | 0.00108 | 17.7009 | 249.5878 | 279.1042 | 14.16030 | – |
| 2026 May 01 17:56 | 2026 Apr 30 09:54:03 | 82.9324 | 0.00108 | 17.7009 | 249.5878 | 279.1042 | 14.16030 | – |
| 2026 Apr 30 17:56 | 2026 Apr 30 09:54:03 | 82.9324 | 0.00108 | 17.7009 | 249.5878 | 279.1042 | 14.16030 | – |
| 2026 Apr 29 17:57 | 2026 Apr 24 09:36:08 | 82.9322 | 0.00104 | 18.0193 | 270.8349 | 279.1042 | 14.16030 | – |
| 2026 Apr 28 17:56 | 2026 Apr 24 09:36:08 | 82.9322 | 0.00104 | 18.0193 | 270.8349 | 279.1042 | 14.16030 | – |
| 2026 Apr 27 17:58 | 2026 Apr 24 09:36:08 | 82.9322 | 0.00104 | 18.0193 | 270.8349 | 279.1042 | 14.16030 | – |
| 2026 Apr 26 17:58 | 2026 Apr 24 09:36:08 | 82.9322 | 0.00104 | 18.0193 | 270.8349 | 279.1042 | 14.16030 | – |
| 2026 Apr 25 17:58 | 2026 Apr 24 09:36:08 | 82.9322 | 0.00104 | 18.0193 | 270.8349 | 279.1042 | 14.16030 | – |
| 2026 Apr 24 17:59 | 2026 Apr 24 09:36:08 | 82.9322 | 0.00104 | 18.0193 | 270.8349 | 279.1042 | 14.16030 | – |
| 2026 Apr 23 17:57 | 2026 Apr 18 21:54:23 | 82.9319 | 0.00103 | 18.3100 | 290.5360 | 279.1042 | 14.16030 | – |
| 2026 Apr 22 17:57 | 2026 Apr 18 21:54:23 | 82.9319 | 0.00103 | 18.3100 | 290.5360 | 279.1042 | 14.16030 | – |
| 2026 Apr 21 17:57 | 2026 Apr 18 21:54:23 | 82.9319 | 0.00103 | 18.3100 | 290.5360 | 279.1042 | 14.16030 | – |
| 2026 Apr 20 17:57 | 2026 Apr 18 21:54:23 | 82.9319 | 0.00103 | 18.3100 | 290.5360 | 279.1042 | 14.16030 | – |
| 2026 Apr 19 17:58 | 2026 Apr 18 21:54:23 | 82.9319 | 0.00103 | 18.3100 | 290.5360 | 279.1042 | 14.16030 | – |
| 2026 Apr 18 17:56 | 2026 Apr 12 12:51:20 | 82.9317 | 0.00104 | 18.6477 | 313.5153 | 279.1042 | 14.16030 | – |
| 2026 Apr 16 17:57 | 2026 Apr 12 12:51:20 | 82.9317 | 0.00104 | 18.6477 | 313.5153 | 279.1042 | 14.16030 | – |
| 2026 Apr 14 17:57 | 2026 Apr 12 12:51:20 | 82.9317 | 0.00104 | 18.6477 | 313.5153 | 279.1042 | 14.16030 | – |
| 2026 Apr 13 17:57 | 2026 Apr 12 12:51:20 | 82.9317 | 0.00104 | 18.6477 | 313.5153 | 279.1042 | 14.16030 | – |
| 2026 Apr 12 17:57 | 2026 Apr 08 12:00:45 | 82.9317 | 0.00106 | 18.8615 | 326.4343 | 279.1042 | 14.16030 | – |
| 2026 Apr 11 17:57 | 2026 Apr 08 12:00:45 | 82.9317 | 0.00106 | 18.8615 | 326.4343 | 279.1042 | 14.16030 | – |
| 2026 Apr 10 17:58 | 2026 Apr 08 12:00:45 | 82.9317 | 0.00106 | 18.8615 | 326.4343 | 279.1042 | 14.16030 | – |
| 2026 Apr 09 18:01 | 2026 Apr 08 12:00:45 | 82.9317 | 0.00106 | 18.8615 | 326.4343 | 279.1042 | 14.16030 | – |
| 2026 Apr 08 17:57 | 2026 Apr 08 12:00:45 | 82.9317 | 0.00106 | 18.8615 | 326.4343 | 279.1042 | 14.16030 | – |